sensor_id;sensor_type;location;lat;lon;timestamp;pressure;altitude;pressure_sealevel;temperature;humidity
22964;BME280;11648;49.306;6.934;2022-12-18T00:01:25;99437.78;;;-1.16;62.46
22964;BME280;11648;49.306;6.934;2022-12-18T00:03:53;99438.25;;;-1.07;61.92
22964;BME280;11648;49.306;6.934;2022-12-18T00:06:21;99429.09;;;-1.00;61.27
22964;BME280;11648;49.306;6.934;2022-12-18T00:08:48;99434.63;;;-0.92;61.05
22964;BME280;11648;49.306;6.934;2022-12-18T00:11:18;99431.50;;;-0.87;61.00
22964;BME280;11648;49.306;6.934;2022-12-18T00:13:46;99422.63;;;-0.92;60.90
22964;BME280;11648;49.306;6.934;2022-12-18T00:16:21;99424.25;;;-0.94;61.02
22964;BME280;11648;49.306;6.934;2022-12-18T00:18:49;99429.47;;;-0.92;60.81
22964;BME280;11648;49.306;6.934;2022-12-18T00:21:16;99419.66;;;-1.00;61.20
22964;BME280;11648;49.306;6.934;2022-12-18T00:23:44;99420.81;;;-1.11;61.39
22964;BME280;11648;49.306;6.934;2022-12-18T00:26:13;99423.94;;;-1.34;62.02
22964;BME280;11648;49.306;6.934;2022-12-18T00:28:42;99423.13;;;-1.33;62.16
22964;BME280;11648;49.306;6.934;2022-12-18T00:31:17;99427.53;;;-1.48;62.50
22964;BME280;11648;49.306;6.934;2022-12-18T00:33:44;99429.47;;;-1.44;62.42
22964;BME280;11648;49.306;6.934;2022-12-18T00:36:16;99430.81;;;-1.51;62.39
22964;BME280;11648;49.306;6.934;2022-12-18T00:38:45;99441.22;;;-1.49;62.79
22964;BME280;11648;49.306;6.934;2022-12-18T00:41:13;99447.44;;;-1.45;62.74
22964;BME280;11648;49.306;6.934;2022-12-18T00:43:40;99443.00;;;-1.48;62.74
22964;BME280;11648;49.306;6.934;2022-12-18T00:46:07;99434.97;;;-1.36;62.88
22964;BME280;11648;49.306;6.934;2022-12-18T00:48:35;99443.78;;;-1.33;62.64
22964;BME280;11648;49.306;6.934;2022-12-18T00:51:01;99446.53;;;-1.30;62.77
22964;BME280;11648;49.306;6.934;2022-12-18T00:53:28;99436.59;;;-1.22;62.20
22964;BME280;11648;49.306;6.934;2022-12-18T00:55:55;99425.38;;;-1.23;61.94
22964;BME280;11648;49.306;6.934;2022-12-18T00:58:22;99423.44;;;-1.27;61.81
22964;BME280;11648;49.306;6.934;2022-12-18T01:00:48;99433.84;;;-1.25;62.16
22964;BME280;11648;49.306;6.934;2022-12-18T01:03:15;99440.00;;;-1.23;61.41
22964;BME280;11648;49.306;6.934;2022-12-18T01:05:43;99443.63;;;-1.36;62.23
22964;BME280;11648;49.306;6.934;2022-12-18T01:08:10;99441.94;;;-1.35;61.95
22964;BME280;11648;49.306;6.934;2022-12-18T01:10:40;99438.50;;;-1.52;62.62
22964;BME280;11648;49.306;6.934;2022-12-18T01:13:07;99448.31;;;-1.61;62.99
22964;BME280;11648;49.306;6.934;2022-12-18T01:15:34;99451.41;;;-1.52;62.70
22964;BME280;11648;49.306;6.934;2022-12-18T01:18:01;99450.50;;;-1.53;62.76
22964;BME280;11648;49.306;6.934;2022-12-18T01:20:29;99448.47;;;-1.42;62.65
22964;BME280;11648;49.306;6.934;2022-12-18T01:22:58;99447.09;;;-1.35;62.45
22964;BME280;11648;49.306;6.934;2022-12-18T01:25:26;99453.75;;;-1.40;61.99
22964;BME280;11648;49.306;6.934;2022-12-18T01:27:52;99447.91;;;-1.36;61.90
22964;BME280;11648;49.306;6.934;2022-12-18T01:30:19;99455.00;;;-1.32;62.21
22964;BME280;11648;49.306;6.934;2022-12-18T01:32:46;99450.31;;;-1.39;62.16
22964;BME280;11648;49.306;6.934;2022-12-18T01:35:13;99444.84;;;-1.29;61.65
22964;BME280;11648;49.306;6.934;2022-12-18T01:37:40;99446.69;;;-1.27;61.66
22964;BME280;11648;49.306;6.934;2022-12-18T01:40:07;99454.91;;;-1.18;61.18
22964;BME280;11648;49.306;6.934;2022-12-18T01:42:34;99453.06;;;-1.20;61.30
22964;BME280;11648;49.306;6.934;2022-12-18T01:48:04;99448.28;;;-1.29;61.30
22964;BME280;11648;49.306;6.934;2022-12-18T01:50:39;99447.75;;;-1.39;61.31
22964;BME280;11648;49.306;6.934;2022-12-18T01:53:11;99453.00;;;-1.38;61.71
22964;BME280;11648;49.306;6.934;2022-12-18T01:55:48;99470.50;;;-1.32;61.12
22964;BME280;11648;49.306;6.934;2022-12-18T01:58:18;99457.66;;;-1.31;61.04
22964;BME280;11648;49.306;6.934;2022-12-18T02:00:49;99445.50;;;-1.50;61.60
22964;BME280;11648;49.306;6.934;2022-12-18T02:03:18;99445.09;;;-1.57;61.53
22964;BME280;11648;49.306;6.934;2022-12-18T02:06:00;99436.53;;;-1.72;61.93
22964;BME280;11648;49.306;6.934;2022-12-18T02:11:24;99444.94;;;-1.60;62.09
22964;BME280;11648;49.306;6.934;2022-12-18T02:14:10;99439.38;;;-1.68;61.71
22964;BME280;11648;49.306;6.934;2022-12-18T02:25:40;99448.25;;;-1.79;61.57
22964;BME280;11648;49.306;6.934;2022-12-18T02:28:15;99454.94;;;-1.82;61.55
22964;BME280;11648;49.306;6.934;2022-12-18T02:30:48;99456.81;;;-1.80;62.07
22964;BME280;11648;49.306;6.934;2022-12-18T02:33:16;99450.50;;;-1.85;61.70
22964;BME280;11648;49.306;6.934;2022-12-18T02:35:45;99436.31;;;-1.93;61.71
22964;BME280;11648;49.306;6.934;2022-12-18T02:38:12;99433.81;;;-1.91;62.14
22964;BME280;11648;49.306;6.934;2022-12-18T02:40:44;99438.16;;;-2.07;62.39
22964;BME280;11648;49.306;6.934;2022-12-18T02:43:15;99440.69;;;-2.39;63.05
22964;BME280;11648;49.306;6.934;2022-12-18T02:45:52;99444.16;;;-2.22;63.00
22964;BME280;11648;49.306;6.934;2022-12-18T02:48:24;99434.75;;;-2.22;62.64
22964;BME280;11648;49.306;6.934;2022-12-18T02:53:44;99433.88;;;-2.06;62.30
22964;BME280;11648;49.306;6.934;2022-12-18T02:56:16;99438.63;;;-2.14;62.96
22964;BME280;11648;49.306;6.934;2022-12-18T03:06:49;99437.97;;;-2.26;62.69
22964;BME280;11648;49.306;6.934;2022-12-18T03:09:24;99443.69;;;-2.15;62.94
22964;BME280;11648;49.306;6.934;2022-12-18T03:12:04;99446.09;;;-2.18;62.89
22964;BME280;11648;49.306;6.934;2022-12-18T03:17:33;99448.28;;;-2.26;62.63
22964;BME280;11648;49.306;6.934;2022-12-18T03:20:07;99445.38;;;-2.32;63.33
22964;BME280;11648;49.306;6.934;2022-12-18T03:22:36;99453.63;;;-2.68;63.47
22964;BME280;11648;49.306;6.934;2022-12-18T03:25:08;99452.53;;;-2.57;63.76
22964;BME280;11648;49.306;6.934;2022-12-18T03:27:40;99445.50;;;-2.45;63.17
22964;BME280;11648;49.306;6.934;2022-12-18T03:30:12;99451.34;;;-2.47;63.16
22964;BME280;11648;49.306;6.934;2022-12-18T03:33:05;99458.22;;;-2.48;63.35
22964;BME280;11648;49.306;6.934;2022-12-18T03:35:40;99470.28;;;-2.47;63.51
22964;BME280;11648;49.306;6.934;2022-12-18T03:38:10;99468.28;;;-2.53;63.53
22964;BME280;11648;49.306;6.934;2022-12-18T03:43:42;99458.47;;;-2.43;62.70
22964;BME280;11648;49.306;6.934;2022-12-18T03:54:09;99451.13;;;-2.52;62.70
22964;BME280;11648;49.306;6.934;2022-12-18T03:56:46;99458.63;;;-2.71;63.37
22964;BME280;11648;49.306;6.934;2022-12-18T03:59:16;99460.22;;;-2.73;63.67
22964;BME280;11648;49.306;6.934;2022-12-18T04:01:46;99461.94;;;-3.03;64.28
22964;BME280;11648;49.306;6.934;2022-12-18T04:04:15;99455.97;;;-2.87;64.29
22964;BME280;11648;49.306;6.934;2022-12-18T04:06:43;99454.09;;;-2.90;63.61
22964;BME280;11648;49.306;6.934;2022-12-18T04:09:12;99444.94;;;-2.85;63.97
22964;BME280;11648;49.306;6.934;2022-12-18T04:11:43;99445.84;;;-2.99;63.75
22964;BME280;11648;49.306;6.934;2022-12-18T04:14:14;99448.44;;;-2.99;64.07
22964;BME280;11648;49.306;6.934;2022-12-18T04:16:45;99454.91;;;-3.06;63.95
22964;BME280;11648;49.306;6.934;2022-12-18T04:19:15;99447.25;;;-3.04;64.29
22964;BME280;11648;49.306;6.934;2022-12-18T04:21:43;99440.25;;;-3.07;64.61
22964;BME280;11648;49.306;6.934;2022-12-18T04:24:11;99432.34;;;-3.39;65.17
22964;BME280;11648;49.306;6.934;2022-12-18T04:26:44;99437.41;;;-3.26;64.55
22964;BME280;11648;49.306;6.934;2022-12-18T04:29:17;99443.72;;;-3.21;64.44
22964;BME280;11648;49.306;6.934;2022-12-18T04:31:44;99447.88;;;-3.23;64.46
22964;BME280;11648;49.306;6.934;2022-12-18T04:34:10;99441.88;;;-3.23;64.35
22964;BME280;11648;49.306;6.934;2022-12-18T04:36:43;99437.06;;;-3.32;64.54
22964;BME280;11648;49.306;6.934;2022-12-18T04:39:12;99438.75;;;-3.18;64.95
22964;BME280;11648;49.306;6.934;2022-12-18T04:41:40;99444.06;;;-3.29;65.09
22964;BME280;11648;49.306;6.934;2022-12-18T04:44:08;99443.28;;;-3.14;64.37
22964;BME280;11648;49.306;6.934;2022-12-18T04:46:34;99450.72;;;-3.18;64.27
22964;BME280;11648;49.306;6.934;2022-12-18T04:49:01;99437.34;;;-3.27;64.26
22964;BME280;11648;49.306;6.934;2022-12-18T04:51:28;99444.97;;;-3.14;63.77
22964;BME280;11648;49.306;6.934;2022-12-18T04:53:55;99452.78;;;-3.13;64.01
22964;BME280;11648;49.306;6.934;2022-12-18T04:56:21;99455.72;;;-3.07;64.07
22964;BME280;11648;49.306;6.934;2022-12-18T04:58:48;99467.78;;;-3.06;63.83
22964;BME280;11648;49.306;6.934;2022-12-18T05:01:16;99465.84;;;-3.10;63.69
22964;BME280;11648;49.306;6.934;2022-12-18T05:03:44;99464.50;;;-3.03;63.06
22964;BME280;11648;49.306;6.934;2022-12-18T05:06:11;99468.31;;;-2.96;63.75
22964;BME280;11648;49.306;6.934;2022-12-18T05:08:38;99473.19;;;-3.01;63.30
22964;BME280;11648;49.306;6.934;2022-12-18T05:11:11;99470.72;;;-3.00;63.15
22964;BME280;11648;49.306;6.934;2022-12-18T05:13:38;99464.16;;;-3.09;63.57
22964;BME280;11648;49.306;6.934;2022-12-18T05:16:06;99473.19;;;-3.01;63.55
22964;BME280;11648;49.306;6.934;2022-12-18T05:18:33;99475.06;;;-2.98;63.15
22964;BME280;11648;49.306;6.934;2022-12-18T05:21:00;99487.06;;;-2.99;63.76
22964;BME280;11648;49.306;6.934;2022-12-18T05:23:27;99496.81;;;-2.93;62.78
22964;BME280;11648;49.306;6.934;2022-12-18T05:25:59;99503.22;;;-2.87;62.26
22964;BME280;11648;49.306;6.934;2022-12-18T05:28:27;99503.75;;;-2.92;62.68
22964;BME280;11648;49.306;6.934;2022-12-18T05:30:57;99514.94;;;-3.07;62.84
22964;BME280;11648;49.306;6.934;2022-12-18T05:33:26;99525.50;;;-3.17;63.02
22964;BME280;11648;49.306;6.934;2022-12-18T05:35:58;99516.53;;;-3.23;62.99
22964;BME280;11648;49.306;6.934;2022-12-18T05:38:29;99517.13;;;-3.27;63.62
22964;BME280;11648;49.306;6.934;2022-12-18T05:40:57;99508.59;;;-3.26;63.74
22964;BME280;11648;49.306;6.934;2022-12-18T05:43:25;99516.50;;;-3.38;64.03
22964;BME280;11648;49.306;6.934;2022-12-18T05:45:53;99514.13;;;-3.48;63.93
22964;BME280;11648;49.306;6.934;2022-12-18T05:48:20;99516.09;;;-3.44;63.84
22964;BME280;11648;49.306;6.934;2022-12-18T05:50:48;99508.38;;;-3.44;64.44
22964;BME280;11648;49.306;6.934;2022-12-18T05:53:17;99515.94;;;-3.47;63.87
22964;BME280;11648;49.306;6.934;2022-12-18T05:55:46;99513.59;;;-3.57;64.11
22964;BME280;11648;49.306;6.934;2022-12-18T05:58:13;99509.84;;;-3.62;64.32
22964;BME280;11648;49.306;6.934;2022-12-18T06:00:43;99513.41;;;-3.60;64.77
22964;BME280;11648;49.306;6.934;2022-12-18T06:03:11;99506.50;;;-3.61;64.96
22964;BME280;11648;49.306;6.934;2022-12-18T06:05:41;99514.38;;;-3.58;64.57
22964;BME280;11648;49.306;6.934;2022-12-18T06:08:08;99509.41;;;-3.55;64.29
22964;BME280;11648;49.306;6.934;2022-12-18T06:10:36;99507.03;;;-3.80;64.53
22964;BME280;11648;49.306;6.934;2022-12-18T06:13:02;99509.28;;;-3.99;65.63
22964;BME280;11648;49.306;6.934;2022-12-18T06:15:29;99507.47;;;-3.87;65.16
22964;BME280;11648;49.306;6.934;2022-12-18T06:17:56;99513.41;;;-3.88;65.78
22964;BME280;11648;49.306;6.934;2022-12-18T06:20:23;99511.38;;;-4.07;65.71
22964;BME280;11648;49.306;6.934;2022-12-18T06:22:55;99513.31;;;-3.89;65.58
22964;BME280;11648;49.306;6.934;2022-12-18T06:25:22;99513.00;;;-3.94;65.95
22964;BME280;11648;49.306;6.934;2022-12-18T06:27:49;99521.50;;;-3.82;65.53
22964;BME280;11648;49.306;6.934;2022-12-18T06:30:15;99523.59;;;-3.89;65.72
22964;BME280;11648;49.306;6.934;2022-12-18T06:32:42;99520.84;;;-3.92;65.72
22964;BME280;11648;49.306;6.934;2022-12-18T06:35:09;99520.31;;;-3.74;65.11
22964;BME280;11648;49.306;6.934;2022-12-18T06:37:36;99520.78;;;-3.79;65.13
22964;BME280;11648;49.306;6.934;2022-12-18T06:40:02;99519.41;;;-3.87;65.38
22964;BME280;11648;49.306;6.934;2022-12-18T06:42:29;99512.91;;;-3.82;65.25
22964;BME280;11648;49.306;6.934;2022-12-18T06:44:56;99512.66;;;-4.00;65.57
22964;BME280;11648;49.306;6.934;2022-12-18T06:47:23;99516.19;;;-3.98;65.35
22964;BME280;11648;49.306;6.934;2022-12-18T06:49:50;99512.72;;;-3.99;65.89
22964;BME280;11648;49.306;6.934;2022-12-18T06:52:16;99513.44;;;-4.01;66.06
22964;BME280;11648;49.306;6.934;2022-12-18T06:54:43;99526.00;;;-4.06;65.78
22964;BME280;11648;49.306;6.934;2022-12-18T06:57:12;99515.28;;;-3.99;65.71
22964;BME280;11648;49.306;6.934;2022-12-18T06:59:41;99517.88;;;-3.99;65.98
22964;BME280;11648;49.306;6.934;2022-12-18T07:02:11;99524.97;;;-3.94;65.57
22964;BME280;11648;49.306;6.934;2022-12-18T07:04:39;99531.59;;;-3.85;65.37
22964;BME280;11648;49.306;6.934;2022-12-18T07:07:05;99531.44;;;-3.73;65.22
22964;BME280;11648;49.306;6.934;2022-12-18T07:09:32;99528.69;;;-3.63;65.19
22964;BME280;11648;49.306;6.934;2022-12-18T07:11:59;99538.09;;;-3.77;64.88
22964;BME280;11648;49.306;6.934;2022-12-18T07:14:26;99539.59;;;-3.80;65.04
22964;BME280;11648;49.306;6.934;2022-12-18T07:16:53;99540.34;;;-3.68;64.70
22964;BME280;11648;49.306;6.934;2022-12-18T07:19:20;99549.81;;;-3.54;64.46
22964;BME280;11648;49.306;6.934;2022-12-18T07:21:50;99558.53;;;-3.52;64.25
22964;BME280;11648;49.306;6.934;2022-12-18T07:24:17;99551.66;;;-3.52;64.86
22964;BME280;11648;49.306;6.934;2022-12-18T07:26:47;99559.06;;;-3.43;64.31
22964;BME280;11648;49.306;6.934;2022-12-18T07:29:15;99557.88;;;-3.35;63.78
22964;BME280;11648;49.306;6.934;2022-12-18T07:31:44;99576.44;;;-3.54;63.94
22964;BME280;11648;49.306;6.934;2022-12-18T07:34:14;99589.06;;;-3.43;64.22
22964;BME280;11648;49.306;6.934;2022-12-18T07:36:41;99589.25;;;-3.40;63.70
22964;BME280;11648;49.306;6.934;2022-12-18T07:39:10;99589.66;;;-3.34;63.97
22964;BME280;11648;49.306;6.934;2022-12-18T07:41:37;99582.03;;;-3.18;63.83
22964;BME280;11648;49.306;6.934;2022-12-18T07:44:10;99583.69;;;-3.06;63.21
22964;BME280;11648;49.306;6.934;2022-12-18T07:46:37;99583.25;;;-2.98;62.80
22964;BME280;11648;49.306;6.934;2022-12-18T07:49:04;99580.03;;;-2.94;62.43
22964;BME280;11648;49.306;6.934;2022-12-18T07:51:31;99567.59;;;-3.02;62.33
22964;BME280;11648;49.306;6.934;2022-12-18T07:54:00;99562.44;;;-3.02;62.09
22964;BME280;11648;49.306;6.934;2022-12-18T07:56:27;99559.63;;;-3.06;62.26
22964;BME280;11648;49.306;6.934;2022-12-18T07:58:56;99549.28;;;-3.21;62.25
22964;BME280;11648;49.306;6.934;2022-12-18T08:01:23;99546.00;;;-3.18;62.68
22964;BME280;11648;49.306;6.934;2022-12-18T08:03:50;99544.50;;;-3.15;62.35
22964;BME280;11648;49.306;6.934;2022-12-18T08:06:18;99546.94;;;-2.88;61.77
22964;BME280;11648;49.306;6.934;2022-12-18T08:08:52;99538.56;;;-3.14;62.48
22964;BME280;11648;49.306;6.934;2022-12-18T08:11:19;99545.31;;;-3.01;61.79
22964;BME280;11648;49.306;6.934;2022-12-18T08:13:47;99551.72;;;-2.80;61.64
22964;BME280;11648;49.306;6.934;2022-12-18T08:16:13;99542.13;;;-2.68;61.88
22964;BME280;11648;49.306;6.934;2022-12-18T08:18:40;99542.56;;;-2.45;60.19
22964;BME280;11648;49.306;6.934;2022-12-18T08:23:38;99546.03;;;-2.45;60.84
22964;BME280;11648;49.306;6.934;2022-12-18T08:26:10;99552.50;;;-2.37;60.43
22964;BME280;11648;49.306;6.934;2022-12-18T08:28:37;99555.19;;;-2.35;60.82
22964;BME280;11648;49.306;6.934;2022-12-18T08:31:04;99549.28;;;-2.18;60.79
22964;BME280;11648;49.306;6.934;2022-12-18T08:33:32;99546.53;;;-2.21;59.89
22964;BME280;11648;49.306;6.934;2022-12-18T08:35:59;99550.88;;;-2.06;59.92
22964;BME280;11648;49.306;6.934;2022-12-18T08:38:26;99553.34;;;-2.07;59.47
22964;BME280;11648;49.306;6.934;2022-12-18T08:41:00;99542.25;;;-1.90;59.39
22964;BME280;11648;49.306;6.934;2022-12-18T08:43:27;99536.34;;;-1.73;59.20
22964;BME280;11648;49.306;6.934;2022-12-18T08:46:14;99531.47;;;-1.83;59.35
22964;BME280;11648;49.306;6.934;2022-12-18T08:48:46;99536.25;;;-1.74;59.37
22964;BME280;11648;49.306;6.934;2022-12-18T08:51:16;99544.13;;;-1.87;59.48
22964;BME280;11648;49.306;6.934;2022-12-18T08:53:44;99551.25;;;-1.67;59.82
22964;BME280;11648;49.306;6.934;2022-12-18T08:56:11;99551.47;;;-1.95;59.49
22964;BME280;11648;49.306;6.934;2022-12-18T08:58:39;99561.03;;;-1.92;59.36
22964;BME280;11648;49.306;6.934;2022-12-18T09:01:09;99573.31;;;-1.88;59.94
22964;BME280;11648;49.306;6.934;2022-12-18T09:03:36;99583.56;;;-1.59;59.59
22964;BME280;11648;49.306;6.934;2022-12-18T09:06:04;99575.28;;;-1.84;59.26
22964;BME280;11648;49.306;6.934;2022-12-18T09:08:34;99580.97;;;-1.59;59.63
22964;BME280;11648;49.306;6.934;2022-12-18T09:11:01;99574.28;;;-1.56;59.61
22964;BME280;11648;49.306;6.934;2022-12-18T09:13:28;99587.25;;;-1.70;59.45
22964;BME280;11648;49.306;6.934;2022-12-18T09:15:55;99595.38;;;-1.93;60.15
22964;BME280;11648;49.306;6.934;2022-12-18T09:18:23;99599.75;;;-1.92;60.22
22964;BME280;11648;49.306;6.934;2022-12-18T09:20:50;99596.72;;;-1.85;60.20
22964;BME280;11648;49.306;6.934;2022-12-18T09:23:20;99603.81;;;-1.81;59.98
22964;BME280;11648;49.306;6.934;2022-12-18T09:25:46;99616.50;;;-2.30;61.12
22964;BME280;11648;49.306;6.934;2022-12-18T09:28:15;99612.97;;;-2.17;61.54
22964;BME280;11648;49.306;6.934;2022-12-18T09:30:44;99607.66;;;-1.89;61.81
22964;BME280;11648;49.306;6.934;2022-12-18T09:33:12;99603.41;;;-2.04;61.36
22964;BME280;11648;49.306;6.934;2022-12-18T09:35:40;99599.72;;;-2.23;62.10
22964;BME280;11648;49.306;6.934;2022-12-18T09:38:12;99591.38;;;-2.34;62.07
22964;BME280;11648;49.306;6.934;2022-12-18T09:40:45;99600.50;;;-2.83;63.46
22964;BME280;11648;49.306;6.934;2022-12-18T09:43:24;99586.00;;;-2.95;64.44
22964;BME280;11648;49.306;6.934;2022-12-18T09:46:01;99596.88;;;-3.14;64.85
22964;BME280;11648;49.306;6.934;2022-12-18T09:48:36;99592.91;;;-3.09;65.39
22964;BME280;11648;49.306;6.934;2022-12-18T09:53:44;99602.53;;;-2.92;64.70
22964;BME280;11648;49.306;6.934;2022-12-18T09:56:16;99603.78;;;-2.85;64.72
22964;BME280;11648;49.306;6.934;2022-12-18T09:59:01;99603.69;;;-2.72;64.52
22964;BME280;11648;49.306;6.934;2022-12-18T10:01:29;99599.47;;;-2.57;64.10
22964;BME280;11648;49.306;6.934;2022-12-18T10:04:10;99595.81;;;-2.31;64.04
22964;BME280;11648;49.306;6.934;2022-12-18T10:06:49;99603.63;;;-2.30;63.80
22964;BME280;11648;49.306;6.934;2022-12-18T10:09:27;99599.97;;;-2.19;63.32
22964;BME280;11648;49.306;6.934;2022-12-18T10:14:52;99580.16;;;-2.20;63.43
22964;BME280;11648;49.306;6.934;2022-12-18T10:25:26;99555.22;;;-1.74;61.97
22964;BME280;11648;49.306;6.934;2022-12-18T10:28:07;99550.78;;;-1.76;62.18
22964;BME280;11648;49.306;6.934;2022-12-18T10:30:35;99551.06;;;-1.86;62.52
22964;BME280;11648;49.306;6.934;2022-12-18T10:33:02;99555.09;;;-1.91;62.44
22964;BME280;11648;49.306;6.934;2022-12-18T10:35:29;99542.72;;;-1.97;62.75
22964;BME280;11648;49.306;6.934;2022-12-18T10:40:27;99546.19;;;-1.96;62.63
22964;BME280;11648;49.306;6.934;2022-12-18T10:43:14;99548.63;;;-2.00;63.31
22964;BME280;11648;49.306;6.934;2022-12-18T10:45:42;99536.28;;;-2.05;64.05
22964;BME280;11648;49.306;6.934;2022-12-18T10:48:24;99529.41;;;-2.05;63.79
22964;BME280;11648;49.306;6.934;2022-12-18T10:50:51;99522.88;;;-1.83;62.82
22964;BME280;11648;49.306;6.934;2022-12-18T10:53:40;99512.38;;;-1.54;62.85
22964;BME280;11648;49.306;6.934;2022-12-18T10:56:08;99526.41;;;-1.33;62.64
22964;BME280;11648;49.306;6.934;2022-12-18T10:58:37;99524.50;;;-1.37;61.84
22964;BME280;11648;49.306;6.934;2022-12-18T11:01:16;99518.31;;;-0.90;61.94
22964;BME280;11648;49.306;6.934;2022-12-18T11:03:59;99518.53;;;-0.86;60.62
22964;BME280;11648;49.306;6.934;2022-12-18T11:06:28;99511.28;;;-0.59;60.62
22964;BME280;11648;49.306;6.934;2022-12-18T11:09:04;99505.06;;;-0.63;60.44
22964;BME280;11648;49.306;6.934;2022-12-18T11:11:38;99503.25;;;-0.47;60.59
22964;BME280;11648;49.306;6.934;2022-12-18T11:14:07;99497.84;;;-0.86;60.41
22964;BME280;11648;49.306;6.934;2022-12-18T11:16:46;99491.84;;;-1.03;60.63
22964;BME280;11648;49.306;6.934;2022-12-18T11:19:38;99487.34;;;-0.73;60.76
22964;BME280;11648;49.306;6.934;2022-12-18T11:22:25;99478.06;;;-0.85;60.64
22964;BME280;11648;49.306;6.934;2022-12-18T11:25:03;99489.44;;;-0.48;60.51
22964;BME280;11648;49.306;6.934;2022-12-18T11:27:58;99481.66;;;-0.30;59.59
22964;BME280;11648;49.306;6.934;2022-12-18T11:30:29;99471.03;;;-0.36;59.81
22964;BME280;11648;49.306;6.934;2022-12-18T11:35:38;99464.69;;;0.31;58.32
22964;BME280;11648;49.306;6.934;2022-12-18T11:40:42;99446.88;;;0.58;57.41
22964;BME280;11648;49.306;6.934;2022-12-18T11:43:14;99454.31;;;0.88;56.83
22964;BME280;11648;49.306;6.934;2022-12-18T11:46:15;99451.75;;;0.90;55.66
22964;BME280;11648;49.306;6.934;2022-12-18T11:48:48;99456.28;;;1.15;56.78
22964;BME280;11648;49.306;6.934;2022-12-18T11:51:25;99454.75;;;1.40;55.78
22964;BME280;11648;49.306;6.934;2022-12-18T11:53:55;99444.97;;;1.76;54.97
22964;BME280;11648;49.306;6.934;2022-12-18T11:56:43;99441.16;;;1.89;53.58
22964;BME280;11648;49.306;6.934;2022-12-18T11:59:37;99451.31;;;1.62;54.11
22964;BME280;11648;49.306;6.934;2022-12-18T12:07:55;99454.50;;;1.14;55.47
22964;BME280;11648;49.306;6.934;2022-12-18T12:10:32;99448.63;;;0.97;56.13
22964;BME280;11648;49.306;6.934;2022-12-18T12:13:37;99443.72;;;0.84;56.67
22964;BME280;11648;49.306;6.934;2022-12-18T12:16:17;99430.41;;;0.56;57.22
22964;BME280;11648;49.306;6.934;2022-12-18T12:21:33;99433.34;;;0.25;58.63
22964;BME280;11648;49.306;6.934;2022-12-18T12:27:30;99423.81;;;-0.32;60.02
22964;BME280;11648;49.306;6.934;2022-12-18T12:33:07;99424.19;;;-0.06;59.88
22964;BME280;11648;49.306;6.934;2022-12-18T12:36:09;99427.63;;;0.32;59.67
22964;BME280;11648;49.306;6.934;2022-12-18T12:38:49;99423.81;;;0.24;59.69
22964;BME280;11648;49.306;6.934;2022-12-18T12:41:22;99428.66;;;0.35;59.15
22964;BME280;11648;49.306;6.934;2022-12-18T12:44:15;99428.19;;;0.25;59.75
22964;BME280;11648;49.306;6.934;2022-12-18T12:46:43;99423.16;;;-0.09;60.85
22964;BME280;11648;49.306;6.934;2022-12-18T12:49:15;99424.47;;;0.20;60.49
22964;BME280;11648;49.306;6.934;2022-12-18T12:51:46;99425.78;;;0.10;60.58
22964;BME280;11648;49.306;6.934;2022-12-18T12:54:19;99420.25;;;0.41;60.18
22964;BME280;11648;49.306;6.934;2022-12-18T12:57:08;99418.16;;;0.72;59.17
22964;BME280;11648;49.306;6.934;2022-12-18T13:00:02;99410.34;;;0.71;59.12
22964;BME280;11648;49.306;6.934;2022-12-18T13:05:31;99408.56;;;0.70;59.56
22964;BME280;11648;49.306;6.934;2022-12-18T13:08:22;99389.81;;;0.75;59.67
22964;BME280;11648;49.306;6.934;2022-12-18T13:10:52;99386.25;;;0.73;59.59
22964;BME280;11648;49.306;6.934;2022-12-18T13:13:49;99381.25;;;0.57;59.87
22964;BME280;11648;49.306;6.934;2022-12-18T13:16:20;99382.06;;;0.56;59.92
22964;BME280;11648;49.306;6.934;2022-12-18T13:18:52;99373.53;;;0.59;60.03
22964;BME280;11648;49.306;6.934;2022-12-18T13:21:27;99370.94;;;0.59;60.27
22964;BME280;11648;49.306;6.934;2022-12-18T13:23:55;99371.81;;;0.78;60.25
22964;BME280;11648;49.306;6.934;2022-12-18T13:29:09;99374.63;;;0.84;60.28
22964;BME280;11648;49.306;6.934;2022-12-18T13:36:55;99376.47;;;0.87;59.35
22964;BME280;11648;49.306;6.934;2022-12-18T13:39:30;99367.56;;;0.80;60.22
22964;BME280;11648;49.306;6.934;2022-12-18T13:44:38;99384.34;;;0.69;60.94
22964;BME280;11648;49.306;6.934;2022-12-18T13:49:54;99379.16;;;0.69;60.48
22964;BME280;11648;49.306;6.934;2022-12-18T13:52:26;99372.84;;;0.83;60.22
22964;BME280;11648;49.306;6.934;2022-12-18T13:54:56;99365.16;;;0.85;60.54
22964;BME280;11648;49.306;6.934;2022-12-18T13:59:57;99371.97;;;0.83;60.52
22964;BME280;11648;49.306;6.934;2022-12-18T14:02:26;99363.81;;;0.74;60.76
22964;BME280;11648;49.306;6.934;2022-12-18T14:04:54;99375.22;;;0.18;62.27
22964;BME280;11648;49.306;6.934;2022-12-18T14:07:26;99375.38;;;0.21;62.38
22964;BME280;11648;49.306;6.934;2022-12-18T14:09:59;99371.25;;;0.45;62.76
22964;BME280;11648;49.306;6.934;2022-12-18T14:12:49;99369.38;;;0.62;61.84
22964;BME280;11648;49.306;6.934;2022-12-18T14:15:39;99365.00;;;0.61;62.08
22964;BME280;11648;49.306;6.934;2022-12-18T14:20:47;99361.91;;;0.49;62.22
22964;BME280;11648;49.306;6.934;2022-12-18T14:23:44;99359.09;;;0.64;62.28
22964;BME280;11648;49.306;6.934;2022-12-18T14:26:21;99354.09;;;0.68;61.94
22964;BME280;11648;49.306;6.934;2022-12-18T14:28:49;99361.34;;;0.77;62.00
22964;BME280;11648;49.306;6.934;2022-12-18T14:31:22;99375.91;;;0.94;61.87
22964;BME280;11648;49.306;6.934;2022-12-18T14:33:50;99371.84;;;0.80;61.94
22964;BME280;11648;49.306;6.934;2022-12-18T14:36:22;99366.19;;;0.88;62.21
22964;BME280;11648;49.306;6.934;2022-12-18T14:38:54;99364.09;;;1.01;61.49
22964;BME280;11648;49.306;6.934;2022-12-18T14:41:23;99360.47;;;0.76;61.67
22964;BME280;11648;49.306;6.934;2022-12-18T14:43:51;99358.69;;;0.55;62.33
22964;BME280;11648;49.306;6.934;2022-12-18T14:46:35;99373.84;;;0.45;62.74
22964;BME280;11648;49.306;6.934;2022-12-18T14:49:27;99375.78;;;0.51;63.02
22964;BME280;11648;49.306;6.934;2022-12-18T14:51:57;99374.97;;;0.52;63.23
22964;BME280;11648;49.306;6.934;2022-12-18T14:54:29;99380.63;;;0.63;63.05
22964;BME280;11648;49.306;6.934;2022-12-18T14:57:20;99375.38;;;0.61;63.23
22964;BME280;11648;49.306;6.934;2022-12-18T14:59:47;99368.34;;;0.59;62.81
22964;BME280;11648;49.306;6.934;2022-12-18T15:02:23;99382.75;;;0.52;63.55
22964;BME280;11648;49.306;6.934;2022-12-18T15:07:49;99388.88;;;0.54;63.52